createdAt,value
2018-01-15T00:02:10.995Z,17.40
2018-01-15T00:04:38.582Z,18.23
2018-01-15T00:07:06.166Z,18.67
2018-01-15T00:09:34.582Z,17.90
2018-01-15T00:12:02.176Z,19.97
2018-01-15T00:14:29.770Z,19.50
2018-01-15T00:16:57.673Z,18.00
2018-01-15T00:19:25.417Z,18.17
2018-01-15T00:21:53.108Z,18.70
2018-01-15T00:24:20.851Z,18.87
2018-01-15T00:26:48.565Z,19.13
2018-01-15T00:29:16.990Z,18.80
2018-01-15T00:31:44.626Z,20.97
2018-01-15T00:34:12.420Z,20.23
2018-01-15T00:36:40.086Z,20.20
2018-01-15T00:39:07.791Z,19.73
2018-01-15T00:41:36.142Z,18.00
2018-01-15T00:44:03.835Z,19.17
2018-01-15T00:46:31.569Z,20.87
2018-01-15T00:48:59.215Z,18.37
2018-01-15T00:51:27.065Z,18.80
2018-01-15T00:53:54.665Z,19.77
2018-01-15T00:56:23.050Z,18.83
2018-01-15T00:58:51.678Z,17.90
2018-01-15T01:01:19.320Z,19.20
2018-01-15T01:03:46.920Z,18.87
2018-01-15T01:06:14.618Z,21.20
2018-01-15T01:08:42.982Z,20.57
2018-01-15T01:11:11.424Z,18.80
2018-01-15T01:13:39.388Z,20.60
2018-01-15T01:16:07.069Z,18.77
2018-01-15T01:18:34.728Z,20.10
2018-01-15T01:21:02.418Z,19.90
2018-01-15T01:23:30.783Z,19.47
2018-01-15T01:25:59.203Z,23.77
2018-01-15T01:28:26.974Z,22.20
2018-01-15T01:30:54.575Z,19.03
2018-01-15T01:33:22.409Z,21.07
2018-01-15T01:35:50.062Z,20.97
2018-01-15T01:38:17.832Z,20.67
2018-01-15T01:40:45.480Z,19.87
2018-01-15T01:43:13.208Z,18.83
2018-01-15T01:45:41.572Z,21.00
2018-01-15T01:48:09.938Z,21.63
2018-01-15T01:50:37.772Z,20.20
2018-01-15T01:53:05.431Z,21.87
2018-01-15T01:55:33.060Z,21.03
2018-01-15T01:58:00.958Z,18.87
2018-01-15T02:00:28.619Z,18.93
2018-01-15T02:02:56.381Z,21.50
2018-01-15T02:05:24.024Z,20.63
2018-01-15T02:07:51.624Z,19.73
2018-01-15T02:10:19.232Z,21.40
2018-01-15T02:12:46.866Z,19.93
2018-01-15T02:15:15.290Z,22.00
2018-01-15T02:17:42.899Z,19.10
2018-01-15T02:20:11.341Z,19.70
2018-01-15T02:22:39.095Z,21.43
2018-01-15T02:25:07.779Z,19.70
2018-01-15T02:27:35.551Z,22.40
2018-01-15T02:30:03.226Z,19.20
2018-01-15T02:32:30.819Z,20.87
2018-01-15T02:34:59.232Z,20.33
2018-01-15T02:37:26.908Z,20.07
2018-01-15T02:39:54.621Z,19.73
2018-01-15T02:42:22.295Z,19.47
2018-01-15T02:44:49.953Z,18.70
2018-01-15T02:47:17.695Z,21.93
2018-01-15T02:49:46.122Z,21.93
2018-01-15T02:52:13.762Z,20.60
2018-01-15T02:54:41.402Z,19.23
2018-01-15T02:57:09.812Z,20.43
2018-01-15T02:59:37.532Z,23.57
2018-01-15T03:02:05.914Z,22.17
2018-01-15T03:04:34.487Z,20.80
2018-01-15T03:07:02.856Z,20.27
2018-01-15T03:09:31.301Z,20.93
2018-01-15T03:11:58.908Z,19.20
2018-01-15T03:14:27.306Z,19.00
2018-01-15T03:16:54.988Z,20.27
2018-01-15T03:19:22.607Z,20.43
2018-01-15T03:21:50.998Z,21.97
2018-01-15T03:24:18.720Z,20.00
2018-01-15T03:26:46.485Z,20.07
2018-01-15T03:29:14.319Z,21.90
2018-01-15T03:31:41.985Z,20.27
2018-01-15T03:34:09.634Z,20.13
2018-01-15T03:36:37.321Z,19.60
2018-01-15T03:39:05.115Z,19.00
2018-01-15T03:41:33.487Z,19.60
2018-01-15T03:44:02.054Z,19.53
2018-01-15T03:46:29.674Z,19.17
2018-01-15T03:48:57.548Z,19.80
2018-01-15T03:51:25.239Z,18.87
2018-01-15T03:53:52.912Z,20.30
2018-01-15T03:56:21.327Z,18.83
2018-01-15T03:58:49.058Z,20.57
2018-01-15T04:01:17.466Z,19.63
2018-01-15T04:03:45.145Z,20.60
2018-01-15T04:06:12.730Z,20.77
2018-01-15T04:08:40.432Z,20.03
2018-01-15T04:11:08.044Z,17.80
2018-01-15T04:13:35.638Z,21.53
2018-01-15T04:16:04.080Z,21.70
2018-01-15T04:18:31.687Z,20.97
2018-01-15T04:20:59.315Z,19.53
2018-01-15T04:23:26.942Z,24.07
2018-01-15T04:25:54.530Z,20.70
2018-01-15T04:28:22.190Z,22.10
2018-01-15T04:30:49.829Z,20.60
2018-01-15T04:33:17.511Z,24.20
2018-01-15T04:35:45.206Z,21.40
2018-01-15T04:38:12.826Z,23.53
2018-01-15T04:40:40.510Z,22.37
2018-01-15T04:43:08.870Z,23.23
2018-01-15T04:45:36.508Z,26.07
2018-01-15T04:48:04.144Z,21.60
2018-01-15T04:50:31.777Z,21.83
2018-01-15T04:52:59.416Z,23.20
2018-01-15T04:55:27.778Z,22.43
2018-01-15T04:57:55.615Z,23.00
2018-01-15T05:00:23.379Z,23.90
2018-01-15T05:02:51.023Z,21.80
2018-01-15T05:05:19.519Z,22.00
2018-01-15T05:07:47.105Z,21.07
2018-01-15T05:10:14.750Z,23.10
2018-01-15T05:12:43.920Z,22.10
2018-01-15T05:15:11.514Z,25.30
2018-01-15T05:17:39.103Z,24.70
2018-01-15T05:20:07.531Z,23.93
2018-01-15T05:22:35.125Z,23.77
2018-01-15T05:25:02.729Z,23.50
2018-01-15T05:27:30.568Z,24.30
2018-01-15T05:29:58.179Z,23.50
2018-01-15T05:32:25.852Z,24.47
2018-01-15T05:34:53.647Z,22.00
2018-01-15T05:37:22.066Z,24.83
2018-01-15T05:39:49.729Z,22.77
2018-01-15T05:42:17.596Z,21.47
2018-01-15T05:44:45.360Z,24.90
2018-01-15T05:47:12.946Z,23.20
2018-01-15T05:49:40.631Z,25.23
2018-01-15T05:52:09.081Z,22.53
2018-01-15T05:54:36.868Z,24.40
2018-01-15T05:57:05.222Z,25.93
2018-01-15T05:59:32.927Z,23.60
2018-01-15T06:02:00.615Z,24.00
2018-01-15T06:04:28.383Z,27.57
2018-01-15T06:06:56.145Z,25.03
2018-01-15T06:09:24.009Z,23.70
2018-01-15T06:11:51.616Z,24.87
2018-01-15T06:14:20.005Z,24.40
2018-01-15T06:16:47.654Z,25.67
2018-01-15T06:19:16.050Z,28.10
2018-01-15T06:21:43.769Z,24.70
2018-01-15T06:24:11.459Z,24.47
2018-01-15T06:26:39.199Z,23.90
2018-01-15T06:29:06.958Z,25.20
2018-01-15T06:31:34.725Z,29.10
2018-01-15T06:34:02.421Z,27.40
2018-01-15T06:36:30.141Z,26.47
2018-01-15T06:38:57.851Z,26.97
2018-01-15T06:41:25.456Z,25.33
2018-01-15T06:43:53.192Z,24.20
2018-01-15T06:46:20.796Z,28.07
2018-01-15T06:48:49.338Z,24.13
2018-01-15T06:51:17.100Z,26.90
2018-01-15T06:53:44.809Z,28.47
2018-01-15T06:56:13.265Z,26.40
2018-01-15T06:58:40.898Z,25.90
2018-01-15T07:01:08.591Z,26.73
2018-01-15T07:03:36.251Z,25.03
2018-01-15T07:06:03.982Z,26.47
2018-01-15T07:08:31.585Z,25.37
2018-01-15T07:11:01.046Z,24.87
2018-01-15T07:13:28.752Z,24.87
2018-01-15T07:15:57.169Z,23.70
2018-01-15T07:18:25.052Z,24.57
2018-01-15T07:20:52.642Z,26.23
2018-01-15T07:23:20.286Z,23.87
2018-01-15T07:25:47.922Z,24.40
2018-01-15T07:28:15.589Z,25.93
2018-01-15T07:30:43.319Z,23.20
2018-01-15T07:33:10.952Z,24.27
2018-01-15T07:35:39.493Z,26.13
2018-01-15T07:38:07.188Z,27.50
2018-01-15T07:40:34.914Z,28.13
2018-01-15T07:43:02.778Z,24.10
2018-01-15T07:45:30.571Z,24.27
2018-01-15T07:47:58.407Z,24.30
2018-01-15T07:50:26.272Z,22.30
2018-01-15T07:52:54.030Z,25.97
2018-01-15T07:55:31.914Z,22.97
2018-01-15T07:57:59.725Z,24.03
2018-01-15T08:00:27.564Z,24.23
2018-01-15T08:02:55.168Z,20.63
2018-01-15T08:05:23.750Z,22.80
2018-01-15T08:07:52.128Z,23.60
2018-01-15T08:10:20.529Z,23.27
2018-01-15T08:12:48.295Z,21.80
2018-01-15T08:15:15.900Z,22.30
2018-01-15T08:17:43.490Z,24.30
2018-01-15T08:20:11.955Z,23.90
2018-01-15T08:22:39.630Z,21.30
2018-01-15T08:25:08.056Z,22.93
2018-01-15T08:27:35.845Z,23.67
2018-01-15T08:30:03.443Z,25.20
2018-01-15T08:32:31.242Z,25.27
2018-01-15T08:34:58.852Z,21.80
2018-01-15T08:37:26.589Z,24.63
2018-01-15T08:39:54.378Z,27.00
2018-01-15T08:42:22.794Z,24.37
2018-01-15T08:44:50.426Z,29.73
2018-01-15T08:47:18.217Z,24.40
2018-01-15T08:49:45.856Z,27.03
2018-01-15T08:52:13.452Z,24.40
2018-01-15T08:54:41.310Z,24.03
2018-01-15T08:57:08.898Z,25.30
2018-01-15T08:59:36.489Z,22.33
2018-01-15T09:02:04.313Z,23.80
2018-01-15T09:04:32.057Z,24.17
2018-01-15T09:06:59.727Z,23.70
2018-01-15T09:09:27.469Z,24.13
2018-01-15T09:11:55.239Z,24.17
2018-01-15T09:14:22.904Z,23.60
2018-01-15T09:16:50.510Z,24.83
2018-01-15T09:19:18.866Z,23.53
2018-01-15T09:21:46.627Z,24.67
2018-01-15T09:24:14.462Z,21.87
2018-01-15T09:26:42.116Z,21.03
2018-01-15T09:29:09.812Z,23.00
2018-01-15T09:31:37.434Z,22.87
2018-01-15T09:34:05.307Z,23.67
2018-01-15T09:36:33.072Z,22.13
2018-01-15T09:39:00.680Z,23.17
2018-01-15T09:41:29.255Z,23.00
2018-01-15T09:43:57.653Z,21.40
2018-01-15T09:46:25.348Z,21.63
2018-01-15T09:48:52.991Z,20.77
2018-01-15T09:51:20.698Z,18.67
2018-01-15T09:53:48.330Z,16.73
2018-01-15T09:56:16.018Z,17.87
2018-01-15T09:58:43.659Z,18.37
2018-01-15T10:01:11.462Z,20.33
2018-01-15T10:03:39.840Z,20.27
2018-01-15T10:06:08.263Z,18.87
2018-01-15T10:08:35.865Z,19.20
2018-01-15T10:11:03.450Z,19.27
2018-01-15T10:13:31.226Z,20.20
2018-01-15T10:15:58.824Z,18.90
2018-01-15T10:18:26.489Z,18.00
2018-01-15T10:20:54.120Z,19.93
2018-01-15T10:23:21.752Z,18.70
2018-01-15T10:25:49.441Z,20.50
2018-01-15T10:28:17.081Z,19.20
2018-01-15T10:30:44.709Z,18.10
2018-01-15T10:33:13.351Z,19.20
2018-01-15T10:35:40.981Z,19.80
2018-01-15T10:38:08.566Z,19.73
2018-01-15T10:40:36.296Z,17.97
2018-01-15T10:43:04.017Z,20.43
2018-01-15T10:45:31.602Z,17.70
2018-01-15T10:48:00.233Z,18.73
2018-01-15T10:50:27.927Z,17.93
2018-01-15T10:52:55.761Z,18.50
2018-01-15T10:55:23.392Z,20.13
2018-01-15T10:57:51.122Z,17.67
2018-01-15T11:00:19.495Z,18.63
2018-01-15T11:02:47.083Z,17.57
2018-01-15T11:05:14.996Z,16.97
2018-01-15T11:07:42.765Z,13.03
2018-01-15T11:10:10.539Z,13.10
2018-01-15T11:12:38.150Z,12.57
2018-01-15T11:15:05.930Z,13.27
2018-01-15T11:17:33.591Z,12.00
2018-01-15T11:20:01.228Z,12.50
2018-01-15T11:22:28.818Z,12.67
2018-01-15T11:24:56.624Z,11.80
2018-01-15T11:27:25.026Z,13.27
2018-01-15T11:29:52.822Z,12.33
2018-01-15T11:32:20.501Z,12.73
2018-01-15T11:34:48.102Z,12.43
2018-01-15T11:37:15.899Z,12.87
2018-01-15T11:39:43.690Z,12.37
2018-01-15T11:42:11.469Z,13.63
2018-01-15T11:44:39.864Z,13.00
2018-01-15T11:47:08.250Z,13.13
2018-01-15T11:49:35.960Z,14.13
2018-01-15T11:52:03.599Z,12.67
2018-01-15T11:54:31.329Z,13.87
2018-01-15T11:56:59.013Z,12.30
2018-01-15T11:59:26.635Z,11.43
2018-01-15T12:01:55.261Z,13.67
2018-01-15T12:04:23.025Z,14.40
2018-01-15T12:06:50.644Z,14.60
2018-01-15T12:09:19.092Z,14.17
2018-01-15T12:11:46.928Z,13.10
2018-01-15T12:14:14.760Z,14.40
2018-01-15T12:16:42.359Z,13.67
2018-01-15T12:19:10.039Z,13.47
2018-01-15T12:21:37.828Z,14.77
2018-01-15T12:24:06.273Z,14.47
2018-01-15T12:26:34.015Z,14.83
2018-01-15T12:29:01.624Z,13.93
2018-01-15T12:31:30.006Z,15.00
2018-01-15T12:33:59.351Z,13.67
2018-01-15T12:36:26.957Z,13.27
2018-01-15T12:38:55.457Z,13.27
2018-01-15T12:41:23.088Z,13.47
2018-01-15T12:43:50.842Z,12.90
2018-01-15T12:46:18.574Z,13.93
2018-01-15T12:48:46.205Z,14.40
2018-01-15T12:51:13.906Z,12.83
2018-01-15T12:53:41.520Z,12.93
2018-01-15T12:56:09.261Z,12.93
2018-01-15T12:58:37.717Z,15.07
2018-01-15T13:01:05.332Z,14.90
2018-01-15T13:03:33.046Z,14.40
2018-01-15T13:06:06.495Z,13.30
2018-01-15T13:11:45.506Z,12.80
2018-01-15T13:14:13.876Z,11.40
2018-01-15T13:16:42.413Z,13.57
2018-01-15T13:19:10.053Z,12.00
2018-01-15T13:21:37.700Z,13.97
2018-01-15T13:24:05.423Z,13.33
2018-01-15T13:26:33.155Z,12.10
2018-01-15T13:29:00.797Z,13.13
2018-01-15T13:31:28.429Z,20.07
2018-01-15T13:33:56.813Z,12.13
2018-01-15T13:36:25.174Z,13.10
2018-01-15T13:38:53.628Z,15.13
2018-01-15T13:41:21.322Z,14.90
2018-01-15T13:43:49.850Z,13.43
2018-01-15T13:46:17.572Z,12.23
2018-01-15T13:48:45.159Z,14.13
2018-01-15T13:51:12.859Z,11.63
2018-01-15T13:53:40.727Z,13.77
2018-01-15T13:56:08.328Z,13.33
2018-01-15T13:58:36.051Z,10.63
2018-01-15T14:01:04.462Z,11.40
2018-01-15T14:03:32.046Z,11.30
2018-01-15T14:05:59.670Z,11.80
2018-01-15T14:08:28.058Z,13.93
2018-01-15T14:10:56.598Z,12.40
2018-01-15T14:13:24.334Z,15.03
2018-01-15T14:15:51.975Z,13.80
2018-01-15T14:18:19.575Z,12.93
2018-01-15T14:20:47.178Z,11.87
2018-01-15T14:23:15.004Z,11.53
2018-01-15T14:25:42.685Z,12.90
2018-01-15T14:28:11.137Z,12.33
2018-01-15T14:30:38.775Z,15.10
2018-01-15T14:33:06.467Z,12.87
2018-01-15T14:35:34.944Z,16.07
2018-01-15T14:38:02.630Z,12.47
2018-01-15T14:40:30.292Z,11.83
2018-01-15T14:42:58.682Z,11.77
2018-01-15T14:45:26.296Z,13.47
2018-01-15T14:47:54.115Z,13.20
2018-01-15T14:50:21.800Z,13.67
2018-01-15T14:52:49.384Z,13.20
2018-01-15T14:55:17.008Z,16.47
2018-01-15T14:57:44.674Z,13.23
2018-01-15T15:00:12.317Z,12.73
2018-01-15T15:02:40.098Z,14.70
2018-01-15T15:05:07.690Z,15.23
2018-01-15T15:07:35.284Z,13.10
2018-01-15T15:10:02.970Z,14.00
2018-01-15T15:12:30.578Z,10.20
2018-01-15T15:14:58.958Z,10.40
2018-01-15T15:17:27.451Z,10.90
2018-01-15T15:19:55.808Z,11.90
2018-01-15T15:22:23.497Z,11.10
2018-01-15T15:24:51.189Z,13.00
2018-01-15T15:27:18.878Z,9.87
2018-01-15T15:29:46.474Z,9.43
2018-01-15T15:32:14.097Z,10.33
2018-01-15T15:34:41.703Z,9.77
2018-01-15T15:37:09.532Z,13.03
2018-01-15T15:39:37.915Z,11.60
2018-01-15T15:42:06.288Z,10.73
2018-01-15T15:44:34.755Z,11.57
2018-01-15T15:47:02.597Z,12.40
2018-01-15T15:49:31.115Z,9.57
2018-01-15T15:51:59.530Z,10.20
2018-01-15T15:54:27.216Z,12.30
2018-01-15T15:56:54.927Z,13.43
2018-01-15T15:59:23.320Z,10.57
2018-01-15T16:01:51.003Z,10.37
2018-01-15T16:04:18.720Z,11.93
2018-01-15T16:06:47.353Z,12.63
2018-01-15T16:09:14.946Z,10.80
2018-01-15T16:11:42.535Z,13.87
2018-01-15T16:14:10.134Z,10.33
2018-01-15T16:16:37.730Z,10.13
2018-01-15T16:19:05.429Z,14.23
2018-01-15T16:21:35.964Z,12.03
2018-01-15T16:24:03.841Z,19.80
2018-01-15T16:26:31.461Z,11.80
2018-01-15T16:28:59.834Z,11.43
2018-01-15T16:31:28.398Z,13.70
2018-01-15T16:33:55.982Z,11.20
2018-01-15T16:36:23.682Z,12.60
2018-01-15T16:38:51.290Z,14.40
2018-01-15T16:41:19.819Z,10.17
2018-01-15T16:43:47.407Z,9.80
2018-01-15T16:46:15.253Z,11.60
2018-01-15T16:48:42.901Z,10.90
2018-01-15T16:51:11.266Z,10.57
2018-01-15T16:53:38.850Z,12.60
2018-01-15T16:56:07.285Z,12.07
2018-01-15T16:58:34.961Z,10.73
2018-01-15T17:01:02.562Z,11.97
2018-01-15T17:03:30.400Z,10.87
2018-01-15T17:05:58.059Z,11.60
2018-01-15T17:08:25.668Z,12.47
2018-01-15T17:10:54.202Z,12.90
2018-01-15T17:13:21.967Z,12.80
2018-01-15T17:15:49.571Z,10.77
2018-01-15T17:18:18.054Z,13.30
2018-01-15T17:20:46.456Z,10.47
2018-01-15T17:23:14.042Z,10.27
2018-01-15T17:25:41.807Z,10.43
2018-01-15T17:28:10.383Z,10.73
2018-01-15T17:30:37.970Z,10.30
2018-01-15T17:33:05.698Z,11.23
2018-01-15T17:35:33.290Z,12.40
2018-01-15T17:38:01.124Z,11.37
2018-01-15T17:40:28.783Z,10.17
2018-01-15T17:42:56.547Z,9.80
2018-01-15T17:45:24.309Z,10.03
2018-01-15T17:47:52.075Z,11.47
2018-01-15T17:50:19.658Z,11.37
2018-01-15T17:52:47.496Z,10.77
2018-01-15T17:55:15.261Z,10.93
2018-01-15T17:57:42.862Z,10.73
2018-01-15T18:00:11.357Z,10.87
2018-01-15T18:02:39.856Z,12.07
2018-01-15T18:05:07.566Z,10.83
2018-01-15T18:07:35.159Z,11.73
2018-01-15T18:10:02.960Z,10.93
2018-01-15T18:12:30.562Z,8.60
2018-01-15T18:14:58.957Z,10.07
2018-01-15T18:17:26.720Z,15.07
2018-01-15T18:19:54.467Z,9.77
2018-01-15T18:22:23.001Z,12.10
2018-01-15T18:24:50.819Z,13.80
2018-01-15T18:27:19.213Z,10.53
2018-01-15T18:29:46.899Z,16.20
2018-01-15T18:32:14.512Z,10.70
2018-01-15T18:34:43.044Z,10.23
2018-01-15T18:37:10.760Z,11.33
2018-01-15T18:39:39.169Z,13.10
2018-01-15T18:42:06.879Z,10.60
2018-01-15T18:44:34.606Z,11.87
2018-01-15T18:47:02.220Z,11.07
2018-01-15T18:49:29.858Z,11.37
2018-01-15T18:51:57.621Z,12.20
2018-01-15T18:54:25.451Z,12.33
2018-01-15T18:56:53.429Z,13.20
2018-01-15T18:59:21.530Z,11.07
2018-01-15T19:01:50.132Z,11.60
2018-01-15T19:04:17.722Z,12.43
2018-01-15T19:06:45.422Z,12.43
2018-01-15T19:09:13.030Z,11.80
2018-01-15T19:11:40.820Z,13.00
2018-01-15T19:14:08.503Z,12.90
2018-01-15T19:16:36.272Z,10.80
2018-01-15T19:19:03.891Z,13.63
2018-01-15T19:21:31.660Z,10.73
2018-01-15T19:23:59.374Z,10.63
2018-01-15T19:26:27.722Z,12.77
2018-01-15T19:28:55.351Z,11.10
2018-01-15T19:31:22.996Z,12.60
2018-01-15T19:33:50.579Z,12.90
2018-01-15T19:36:23.845Z,13.53
2018-01-15T19:38:58.089Z,10.97
2018-01-15T19:41:30.368Z,11.27
2018-01-15T19:44:04.806Z,11.37
2018-01-15T19:46:38.472Z,10.10
2018-01-15T19:49:11.845Z,10.03
2018-01-15T19:51:45.128Z,17.23
2018-01-15T19:54:18.476Z,10.80
2018-01-15T19:56:51.839Z,11.37
2018-01-15T19:59:25.047Z,9.73
2018-01-15T20:01:58.359Z,10.47
2018-01-15T20:04:31.750Z,10.23
2018-01-15T20:07:04.967Z,10.40
2018-01-15T20:09:39.228Z,10.40
2018-01-15T20:12:06.919Z,11.80
2018-01-15T20:14:34.574Z,10.40
2018-01-15T20:17:02.184Z,10.63
2018-01-15T20:19:29.864Z,10.20
2018-01-15T20:21:57.504Z,10.30
2018-01-15T20:24:25.142Z,10.57
2018-01-15T20:26:53.526Z,9.23
2018-01-15T20:29:21.891Z,11.17
2018-01-15T20:31:50.721Z,10.10
2018-01-15T20:34:18.393Z,15.53
2018-01-15T20:36:46.971Z,10.37
2018-01-15T20:39:14.554Z,10.33
2018-01-15T20:41:42.176Z,15.37
2018-01-15T20:44:09.950Z,10.23
2018-01-15T20:46:37.534Z,9.30
2018-01-15T20:49:05.223Z,9.60
2018-01-15T20:51:33.601Z,14.13
2018-01-15T20:54:02.127Z,12.07
2018-01-15T20:56:29.892Z,10.40
2018-01-15T20:58:57.620Z,12.87
2018-01-15T21:01:25.416Z,14.67
2018-01-15T21:03:53.207Z,18.90
2018-01-15T21:06:20.894Z,11.47
2018-01-15T21:08:49.421Z,11.47
2018-01-15T21:11:17.027Z,12.90
2018-01-15T21:13:45.403Z,15.70
2018-01-15T21:16:13.857Z,10.90
2018-01-15T21:18:41.602Z,12.67
2018-01-15T21:21:09.408Z,12.87
2018-01-15T21:23:37.872Z,12.30
2018-01-15T21:26:05.455Z,14.03
2018-01-15T21:28:33.882Z,13.27
2018-01-15T21:31:01.496Z,12.90
2018-01-15T21:33:29.226Z,13.63
2018-01-15T21:35:56.834Z,11.27
2018-01-15T21:38:24.547Z,16.23
2018-01-15T21:40:52.281Z,13.90
2018-01-15T21:43:19.900Z,11.73
2018-01-15T21:45:47.710Z,9.80
2018-01-15T21:48:15.355Z,10.50
2018-01-15T21:50:43.051Z,10.97
2018-01-15T21:53:10.644Z,11.10
2018-01-15T21:55:38.342Z,10.27
2018-01-15T21:58:05.985Z,9.83
2018-01-15T22:00:33.596Z,12.20
2018-01-15T22:03:01.986Z,11.40
2018-01-15T22:05:30.446Z,9.57
2018-01-15T22:07:58.095Z,8.70
2018-01-15T22:10:25.881Z,13.33
2018-01-15T22:12:54.299Z,9.47
2018-01-15T22:15:21.979Z,9.70
2018-01-15T22:17:49.665Z,8.10
2018-01-15T22:20:17.384Z,8.07
2018-01-15T22:22:45.021Z,8.00
2018-01-15T22:25:13.408Z,8.87
2018-01-15T22:27:41.100Z,10.43
2018-01-15T22:30:08.727Z,9.90
2018-01-15T22:32:46.558Z,10.20
2018-01-15T22:35:14.155Z,8.37
2018-01-15T22:37:42.506Z,8.60
2018-01-15T22:40:10.256Z,8.63
2018-01-15T22:42:37.853Z,8.40
2018-01-15T22:45:05.597Z,6.70
2018-01-15T22:47:33.194Z,9.30
2018-01-15T22:50:01.000Z,7.93
2018-01-15T22:52:28.598Z,7.90
2018-01-15T22:54:56.196Z,6.40
2018-01-15T22:57:24.085Z,5.40
2018-01-15T22:59:51.798Z,5.43
2018-01-15T23:02:20.324Z,4.23
2018-01-15T23:04:47.957Z,5.13
2018-01-15T23:07:15.770Z,4.30
2018-01-15T23:09:43.363Z,3.00
2018-01-15T23:12:11.888Z,4.13
2018-01-15T23:14:39.640Z,2.67
2018-01-15T23:17:07.232Z,2.90
2018-01-15T23:19:34.970Z,3.77
2018-01-15T23:22:02.612Z,4.10
2018-01-15T23:24:30.394Z,3.20
2018-01-15T23:26:58.218Z,5.23
2018-01-15T23:29:25.889Z,2.83
2018-01-15T23:31:53.544Z,3.13
2018-01-15T23:34:21.368Z,2.30
2018-01-15T23:36:49.097Z,3.23
2018-01-15T23:39:16.738Z,1.93
2018-01-15T23:41:44.384Z,2.47
2018-01-15T23:44:12.904Z,2.73
2018-01-15T23:46:40.514Z,2.10
2018-01-15T23:49:08.859Z,3.83
2018-01-15T23:51:36.530Z,2.33
2018-01-15T23:54:04.122Z,1.60
2018-01-15T23:56:31.888Z,2.10
2018-01-15T23:58:59.547Z,1.60
